createdAt,value
2023-02-07T00:29:16.430Z,57.20
2023-02-07T00:59:19.775Z,55.50
2023-02-07T01:29:22.728Z,47.97
2023-02-07T01:59:26.090Z,46.23
2023-02-07T02:29:29.117Z,57.50
2023-02-07T02:59:32.318Z,48.57
2023-02-07T03:29:35.301Z,49.53
2023-02-07T03:59:38.907Z,50.07
2023-02-07T04:29:41.887Z,42.97
2023-02-07T04:59:45.480Z,46.03
2023-02-07T05:29:48.693Z,48.47
2023-02-07T05:59:51.935Z,41.90
2023-02-07T06:29:54.926Z,34.53
2023-02-07T06:59:58.270Z,42.07
2023-02-07T07:30:01.352Z,40.47
2023-02-07T08:00:04.948Z,43.37
2023-02-07T08:30:08.751Z,42.63
2023-02-07T09:00:12.219Z,41.00
2023-02-07T09:30:15.764Z,44.77
2023-02-07T10:00:19.127Z,38.10
2023-02-07T10:30:22.650Z,34.53
2023-02-07T11:00:26.172Z,37.50
2023-02-07T11:30:29.525Z,27.33
2023-02-07T12:00:33.005Z,40.30
2023-02-07T12:30:36.191Z,28.57
2023-02-07T13:00:40.269Z,31.65
2023-02-07T13:30:43.380Z,29.70
2023-02-07T14:00:46.867Z,19.83
2023-02-07T14:30:52.950Z,19.57
2023-02-07T15:00:55.833Z,28.53
2023-02-07T15:30:59.251Z,32.77
2023-02-07T16:01:02.448Z,31.60
2023-02-07T16:31:05.725Z,32.10
2023-02-07T17:01:08.752Z,36.75
2023-02-07T17:31:12.428Z,45.93
2023-02-07T18:01:15.524Z,36.20
2023-02-07T18:31:19.497Z,41.45
2023-02-07T19:01:22.594Z,33.70
2023-02-07T19:31:26.454Z,38.83
2023-02-07T20:01:29.729Z,42.57
2023-02-07T20:31:33.865Z,37.73
2023-02-07T21:01:36.909Z,39.10
2023-02-07T21:31:40.590Z,32.27
2023-02-07T22:01:43.684Z,36.80
2023-02-07T22:31:47.460Z,37.17
2023-02-07T23:01:51.217Z,42.50
2023-02-07T23:31:55.501Z,30.95
